Time;durP1;ratioP1;P1;durP2;ratioP2;P2;SDS_P1;SDS_P2;PMS_P1;PMS_P2;Temp;Humidity;BMP_temperature;BMP_pressure;BME280_temperature;BME280_humidity;BME280_pressure;Samples;Min_cycle;Max_cycle;Signal;HPM_P1;HPM_P2
2024/04/01 00:00:07;;;;;;;21.30;7.55;;;537.90;1305.60;;;;;;5048738;28;20639;-72
2024/04/01 00:02:33;;;;;;;20.90;7.00;;;537.90;1305.60;;;;;;5048225;28;20025;-77
2024/04/01 00:04:59;;;;;;;21.95;7.72;;;537.90;1305.60;;;;;;5048485;28;20079;-77
2024/04/01 00:07:24;;;;;;;17.23;6.30;;;537.90;1305.60;;;;;;5046857;28;20494;-73
2024/04/01 00:09:50;;;;;;;23.73;7.32;;;537.90;1305.60;;;;;;5047658;28;20025;-73
2024/04/01 00:12:16;;;;;;;26.77;8.38;;;537.90;1305.60;;;;;;5048512;28;20029;-76
2024/04/01 00:14:42;;;;;;;18.02;6.57;;;537.90;1305.60;;;;;;5048411;28;20067;-77
2024/04/01 00:17:08;;;;;;;23.58;6.53;;;537.90;1305.60;;;;;;5048060;28;20037;-76
2024/04/01 00:19:34;;;;;;;24.60;6.68;;;537.90;1305.60;;;;;;5063575;28;20029;-75
2024/04/01 00:21:59;;;;;;;20.00;8.35;;;537.90;1305.60;;;;;;5048293;28;20028;-76
2024/04/01 00:24:25;;;;;;;23.25;6.93;;;537.80;1331.20;;;;;;5047911;28;20120;-74
2024/04/01 00:26:51;;;;;;;21.75;6.88;;;538.00;1305.60;;;;;;5048089;28;20143;-69
2024/04/01 00:29:17;;;;;;;23.00;7.55;;;537.90;1305.60;;;;;;5048329;28;20027;-77
2024/04/01 00:31:43;;;;;;;20.60;6.25;;;537.80;1331.20;;;;;;5052253;28;20074;-71
2024/04/01 00:34:08;;;;;;;20.83;6.68;;;537.70;1331.20;;;;;;5052641;28;20058;-80
2024/04/01 00:36:34;;;;;;;27.73;6.55;;;537.80;1305.60;;;;;;5052074;28;20463;-75
2024/04/01 00:39:00;;;;;;;22.48;7.05;;;537.80;1331.20;;;;;;5051959;28;20021;-75
2024/04/01 00:41:26;;;;;;;25.42;7.57;;;537.80;1331.20;;;;;;5052749;28;20029;-78
2024/04/01 00:43:53;;;;;;;22.30;6.85;;;537.70;1331.20;;;;;;5052040;28;20039;-76
2024/04/01 00:46:20;;;;;;;19.75;7.60;;;537.70;1331.20;;;;;;5052320;28;20442;-76
2024/04/01 00:48:48;;;;;;;23.70;6.60;;;537.70;1331.20;;;;;;5052326;28;20025;-78
2024/04/01 00:51:15;;;;;;;27.33;8.43;;;537.60;1331.20;;;;;;5052231;28;20021;-78
2024/04/01 00:53:42;;;;;;;19.05;6.72;;;537.60;1356.80;;;;;;5039184;28;20037;-79
2024/04/01 00:56:08;;;;;;;20.83;6.38;;;537.60;1331.20;;;;;;5051900;28;20037;-79
2024/04/01 00:58:34;;;;;;;30.90;8.23;;;537.60;1331.20;;;;;;5051849;28;20364;-79
2024/04/01 01:01:01;;;;;;;35.15;8.07;;;537.60;1331.20;;;;;;5051312;28;20387;-77
2024/04/01 01:03:27;;;;;;;31.55;8.57;;;537.60;1331.20;;;;;;5051896;28;20013;-74
2024/04/01 01:05:53;;;;;;;18.52;7.68;;;537.60;1356.80;;;;;;5051842;28;20345;-73
2024/04/01 01:08:19;;;;;;;32.55;8.98;;;537.70;1331.20;;;;;;5052078;28;20025;-78
2024/04/01 01:10:46;;;;;;;29.40;8.38;;;537.70;1331.20;;;;;;5051645;28;20051;-75
2024/04/01 01:13:11;;;;;;;24.83;8.38;;;537.70;1356.80;;;;;;5051505;28;20104;-79
2024/04/01 01:15:37;;;;;;;29.80;7.97;;;537.70;1356.80;;;;;;5051702;28;20124;-78
2024/04/01 01:18:03;;;;;;;29.73;8.13;;;537.70;1356.80;;;;;;5051452;28;20033;-75
2024/04/01 01:20:29;;;;;;;35.35;8.75;;;537.80;1356.80;;;;;;5051702;28;20017;-80
2024/04/01 01:22:56;;;;;;;28.80;7.38;;;537.80;1356.80;;;;;;5051444;28;20360;-75
2024/04/01 01:25:22;;;;;;;23.70;8.05;;;537.80;1356.80;;;;;;5051201;28;20018;-77
2024/04/01 01:27:48;;;;;;;26.13;7.88;;;537.90;1356.80;;;;;;5051716;28;20028;-76
2024/04/01 01:30:16;;;;;;;32.40;7.78;;;537.80;1356.80;;;;;;5051285;28;20052;-78
2024/04/01 01:32:46;;;;;;;24.95;8.02;;;537.80;1356.80;;;;;;5051214;28;20040;-75
2024/04/01 01:35:16;;;;;;;31.67;9.88;;;537.90;1331.20;;;;;;5051169;28;20515;-78
2024/04/01 01:37:43;;;;;;;28.27;8.63;;;537.90;1331.20;;;;;;5051311;28;20494;-78
2024/04/01 01:40:09;;;;;;;30.90;9.27;;;537.90;1331.20;;;;;;5050829;28;20056;-77
2024/04/01 01:42:35;;;;;;;28.60;9.23;;;537.90;1331.20;;;;;;5051075;28;20426;-78
2024/04/01 01:45:03;;;;;;;30.85;9.25;;;538.00;1331.20;;;;;;5051341;28;20025;-78
2024/04/01 01:47:31;;;;;;;33.63;7.97;;;537.90;1356.80;;;;;;5051532;28;20071;-80
2024/04/01 01:49:57;;;;;;;42.90;9.52;;;537.90;1356.80;;;;;;5051241;28;20021;-78
2024/04/01 01:52:23;;;;;;;32.30;9.85;;;537.90;1356.80;;;;;;5050865;28;20035;-71
2024/04/01 01:54:49;;;;;;;39.50;8.48;;;538.00;1331.20;;;;;;5050954;28;20441;-79
2024/04/01 01:57:15;;;;;;;28.10;9.52;;;537.90;1331.20;;;;;;5051003;28;20655;-79
2024/04/01 01:59:41;;;;;;;38.97;11.07;;;537.90;1331.20;;;;;;5051114;28;20376;-79
2024/04/01 02:02:07;;;;;;;32.97;8.88;;;537.80;1356.80;;;;;;5050901;28;20481;-75
2024/04/01 02:04:33;;;;;;;30.45;9.77;;;537.90;1356.80;;;;;;5050861;28;20371;-76
2024/04/01 02:06:59;;;;;;;35.42;10.05;;;537.90;1356.80;;;;;;5050880;28;20059;-76
2024/04/01 02:09:25;;;;;;;28.30;8.30;;;537.90;1356.80;;;;;;5050254;28;20025;-75
2024/04/01 02:11:50;;;;;;;31.15;8.45;;;537.90;1356.80;;;;;;5050709;28;20094;-72
2024/04/01 02:14:16;;;;;;;24.45;8.13;;;537.90;1356.80;;;;;;5050500;28;20021;-79
2024/04/01 02:16:42;;;;;;;27.55;8.15;;;537.70;1382.40;;;;;;5050437;28;20107;-78
2024/04/01 02:19:08;;;;;;;28.33;9.07;;;537.80;1356.80;;;;;;5050762;28;20537;-75
2024/04/01 02:21:34;;;;;;;34.67;9.52;;;537.70;1356.80;;;;;;5050409;28;20541;-77
2024/04/01 02:23:59;;;;;;;28.38;9.40;;;537.90;1356.80;;;;;;5050272;28;20021;-79
2024/04/01 02:26:25;;;;;;;30.85;9.73;;;537.80;1382.40;;;;;;5050442;28;20581;-81
2024/04/01 02:28:51;;;;;;;35.10;11.25;;;537.80;1356.80;;;;;;5050342;28;20170;-74
2024/04/01 02:31:17;;;;;;;36.75;10.15;;;537.90;1356.80;;;;;;5050599;28;20364;-76
2024/04/01 02:33:44;;;;;;;29.95;8.32;;;538.00;1356.80;;;;;;5049913;28;20031;-74
2024/04/01 02:36:10;;;;;;;45.55;10.15;;;538.10;1331.20;;;;;;5050336;28;20044;-77
2024/04/01 02:38:36;;;;;;;32.83;9.38;;;538.00;1356.80;;;;;;5050158;28;20017;-80
2024/04/01 02:41:02;;;;;;;34.58;9.93;;;537.90;1356.80;;;;;;5049806;28;20584;-73
2024/04/01 02:43:28;;;;;;;28.70;10.07;;;537.90;1356.80;;;;;;5049957;28;20464;-74
2024/04/01 02:45:54;;;;;;;34.17;10.20;;;538.00;1331.20;;;;;;5049780;28;20040;-76
2024/04/01 02:48:21;;;;;;;36.10;9.60;;;538.00;1331.20;;;;;;5049397;28;20041;-72
2024/04/01 02:50:47;;;;;;;25.05;9.50;;;538.30;1356.80;;;;;;5050070;28;20094;-79
2024/04/01 02:53:13;;;;;;;27.85;9.95;;;538.00;1356.80;;;;;;5049061;28;20023;-76
2024/04/01 02:55:39;;;;;;;27.25;8.88;;;538.00;1356.80;;;;;;5049824;28;20083;-76
2024/04/01 02:58:04;;;;;;;35.30;10.55;;;537.90;1356.80;;;;;;5047346;28;20017;-80
2024/04/01 03:00:31;;;;;;;43.70;10.20;;;538.00;1356.80;;;;;;5049896;28;20025;-72
2024/04/01 03:02:56;;;;;;;34.58;11.63;;;537.90;1356.80;;;;;;5049904;28;20371;-78
2024/04/01 03:05:22;;;;;;;30.92;10.68;;;538.00;1356.80;;;;;;5049885;28;20029;-77
2024/04/01 03:07:50;;;;;;;42.55;10.57;;;537.90;1356.80;;;;;;5049528;28;20501;-77
2024/04/01 03:10:16;;;;;;;44.90;10.40;;;537.90;1356.80;;;;;;5049841;28;20059;-76
2024/04/01 03:12:43;;;;;;;35.17;10.27;;;537.90;1356.80;;;;;;5049303;28;20025;-78
2024/04/01 03:15:18;;;;;;;33.42;10.15;;;537.90;1356.80;;;;;;5049638;28;20078;-77
2024/04/01 03:17:44;;;;;;;35.92;10.32;;;537.80;1356.80;;;;;;5049788;28;20446;-78
2024/04/01 03:20:11;;;;;;;35.45;9.93;;;537.90;1356.80;;;;;;5048967;28;20025;-77
2024/04/01 03:22:38;;;;;;;35.20;10.40;;;537.90;1356.80;;;;;;5049112;28;20459;-78
2024/04/01 03:25:04;;;;;;;34.17;9.75;;;537.90;1356.80;;;;;;5049223;28;20523;-74
2024/04/01 03:27:30;;;;;;;37.17;10.05;;;537.90;1356.80;;;;;;5049771;28;20096;-74
2024/04/01 03:29:57;;;;;;;34.50;10.50;;;537.90;1356.80;;;;;;5049379;28;20028;-79
2024/04/01 03:32:22;;;;;;;39.28;10.25;;;537.90;1356.80;;;;;;5049322;28;20585;-79
2024/04/01 03:34:49;;;;;;;41.08;11.00;;;537.90;1356.80;;;;;;5049088;28;20021;-76
2024/04/01 03:37:15;;;;;;;33.03;10.65;;;537.90;1356.80;;;;;;5049901;28;20040;-77
2024/04/01 03:39:46;;;;;;;46.33;10.68;;;537.90;1356.80;;;;;;5048693;28;20399;-80
2024/04/01 03:42:13;;;;;;;33.50;10.23;;;537.90;1356.80;;;;;;5049289;28;20029;-78
2024/04/01 03:44:39;;;;;;;47.03;12.55;;;538.00;1356.80;;;;;;5049136;28;20701;-76
2024/04/01 03:47:05;;;;;;;49.00;10.25;;;537.90;1356.80;;;;;;5049141;28;20033;-79
2024/04/01 03:49:31;;;;;;;36.25;10.60;;;538.00;1356.80;;;;;;5049118;28;20028;-79
2024/04/01 03:51:57;;;;;;;41.97;11.10;;;538.00;1331.20;;;;;;5049361;28;20040;-78
2024/04/01 03:54:23;;;;;;;29.73;10.00;;;538.00;1356.80;;;;;;5048622;28;20033;-79
2024/04/01 03:56:49;;;;;;;36.95;10.43;;;537.90;1356.80;;;;;;5049086;28;20092;-78
2024/04/01 03:59:15;;;;;;;46.40;11.38;;;537.90;1356.80;;;;;;5049348;28;20104;-80
2024/04/01 04:01:44;;;;;;;45.95;12.48;;;537.90;1331.20;;;;;;5048562;28;20482;-82
2024/04/01 04:04:11;;;;;;;48.85;12.95;;;537.90;1331.20;;;;;;5050624;28;20075;-72
2024/04/01 04:06:38;;;;;;;40.03;12.20;;;538.00;1331.20;;;;;;5053355;28;20021;-75
2024/04/01 04:09:04;;;;;;;44.47;12.18;;;538.00;1331.20;;;;;;5052921;28;20021;-76
2024/04/01 04:11:30;;;;;;;32.63;10.80;;;538.00;1331.20;;;;;;5052984;28;20036;-71
2024/04/01 04:13:56;;;;;;;41.42;12.15;;;538.00;1331.20;;;;;;5053335;28;20025;-78
2024/04/01 04:16:22;;;;;;;43.08;12.13;;;538.00;1331.20;;;;;;5051824;28;20353;-85
2024/04/01 04:18:47;;;;;;;40.38;11.18;;;538.10;1305.60;;;;;;5047400;28;20036;-82
2024/04/01 04:21:13;;;;;;;36.58;11.50;;;538.10;1305.60;;;;;;5053438;28;20374;-85
2024/04/01 04:23:39;;;;;;;36.63;12.32;;;538.10;1331.20;;;;;;5053322;28;20803;-82
2024/04/01 04:26:08;;;;;;;43.95;11.98;;;538.10;1331.20;;;;;;5053638;28;20029;-85
2024/04/01 04:28:34;;;;;;;39.55;13.98;;;538.10;1305.60;;;;;;5053244;28;20085;-85
2024/04/01 04:31:00;;;;;;;41.38;12.13;;;538.10;1305.60;;;;;;5053471;28;20029;-90
2024/04/01 04:33:26;;;;;;;33.30;11.77;;;538.20;1305.60;;;;;;5052591;28;20024;-89
2024/04/01 04:35:52;;;;;;;39.55;10.75;;;538.10;1331.20;;;;;;5047192;28;20041;-91
2024/04/01 04:38:18;;;;;;;40.55;11.75;;;538.10;1305.60;;;;;;5040345;28;20025;-89
2024/04/01 04:40:44;;;;;;;44.40;12.30;;;538.20;1305.60;;;;;;5052029;28;20410;-85
2024/04/01 04:43:09;;;;;;;41.17;12.95;;;538.20;1305.60;;;;;;5051354;28;20032;-82
2024/04/01 04:45:35;;;;;;;42.00;12.80;;;538.20;1305.60;;;;;;5048523;28;20083;-83
2024/04/01 04:48:01;;;;;;;37.30;12.07;;;538.20;1305.60;;;;;;5050858;28;20096;-92
2024/04/01 04:50:27;;;;;;;49.00;11.48;;;538.20;1305.60;;;;;;5053656;28;20021;-86
2024/04/01 04:52:53;;;;;;;42.83;12.15;;;538.20;1305.60;;;;;;5051071;28;20033;-89
2024/04/01 04:55:22;;;;;;;37.45;11.00;;;538.30;1305.60;;;;;;5051877;28;20539;-92
2024/04/01 04:57:48;;;;;;;42.25;12.55;;;538.20;1305.60;;;;;;5052128;28;20033;-90
2024/04/01 05:00:23;;;;;;;44.65;13.15;;;538.30;1305.60;;;;;;5052757;28;20422;-91
2024/04/01 05:02:52;;;;;;;42.13;12.18;;;538.40;1280.00;;;;;;5051181;28;20032;-89
2024/04/01 05:05:18;;;;;;;48.10;13.52;;;538.40;1280.00;;;;;;5053171;28;20538;-91
2024/04/01 05:07:45;;;;;;;39.97;12.52;;;538.50;1280.00;;;;;;5051553;28;20382;-88
2024/04/01 05:10:12;;;;;;;45.17;13.27;;;538.50;1280.00;;;;;;5053074;28;20033;-92
2024/04/01 05:12:38;;;;;;;38.38;12.07;;;538.50;1280.00;;;;;;5037598;28;20399;-91
2024/04/01 05:15:07;;;;;;;48.97;13.48;;;538.50;1280.00;;;;;;5050142;28;20037;-82
2024/04/01 05:17:33;;;;;;;37.35;11.23;;;538.50;1280.00;;;;;;5051159;28;20095;-90
2024/04/01 05:19:59;;;;;;;48.05;12.60;;;538.50;1280.00;;;;;;5051816;28;20044;-86
2024/04/01 05:22:26;;;;;;;48.20;13.07;;;538.50;1280.00;;;;;;5055571;28;20380;-87
2024/04/01 05:24:52;;;;;;;35.15;11.73;;;538.50;1280.00;;;;;;5056840;28;20045;-85
2024/04/01 05:27:18;;;;;;;41.97;12.00;;;538.50;1280.00;;;;;;5065224;28;20037;-82
2024/04/01 05:29:44;;;;;;;42.92;10.32;;;538.50;1280.00;;;;;;5064651;28;20026;-83
2024/04/01 05:32:10;;;;;;;37.65;12.90;;;538.50;1280.00;;;;;;5049125;28;20100;-81
2024/04/01 05:34:37;;;;;;;35.90;11.32;;;538.50;1280.00;;;;;;5059133;28;20047;-90
2024/04/01 05:37:06;;;;;;;48.28;12.75;;;538.50;1280.00;;;;;;5052647;28;20033;-90
2024/04/01 05:39:33;;;;;;;42.65;12.40;;;538.50;1280.00;;;;;;5052699;28;20045;-90
2024/04/01 05:41:59;;;;;;;44.58;12.90;;;563.20;1305.60;;;;;;5050162;28;20061;-82
2024/04/01 05:44:25;;;;;;;38.40;11.13;;;563.20;1305.60;;;;;;5047724;28;20029;-85
2024/04/01 05:46:51;;;;;;;30.75;10.90;;;563.20;1280.00;;;;;;5051318;28;20029;-84
2024/04/01 05:49:17;;;;;;;37.75;11.52;;;563.20;1305.60;;;;;;5050036;28;20112;-85
2024/04/01 05:51:42;;;;;;;39.90;13.65;;;563.30;1280.00;;;;;;5051627;28;20115;-84
2024/04/01 05:54:08;;;;;;;39.55;11.40;;;563.40;1280.00;;;;;;5047308;28;20029;-91
2024/04/01 05:56:35;;;;;;;40.83;13.02;;;563.40;1280.00;;;;;;5049613;28;20100;-91
2024/04/01 05:59:01;;;;;;;35.75;10.50;;;563.40;1280.00;;;;;;5051596;28;20525;-91
2024/04/01 06:01:26;;;;;;;42.05;11.35;;;563.50;1280.00;;;;;;5047884;28;20026;-87
2024/04/01 06:03:52;;;;;;;45.28;13.35;;;563.50;1280.00;;;;;;5047125;28;20061;-93
2024/04/01 06:06:18;;;;;;;48.53;12.52;;;563.50;1280.00;;;;;;5037444;28;20047;-90
2024/04/01 06:08:45;;;;;;;30.55;11.45;;;563.60;1280.00;;;;;;5048380;28;20021;-83
2024/04/01 06:11:11;;;;;;;40.33;11.32;;;563.60;1280.00;;;;;;5038120;28;20026;-91
2024/04/01 06:13:37;;;;;;;34.25;10.27;;;563.60;1254.40;;;;;;5063002;28;20024;-91
2024/04/01 06:16:03;;;;;;;36.60;12.55;;;563.70;1254.40;;;;;;5050294;28;20060;-83
2024/04/01 06:18:29;;;;;;;38.80;10.30;;;563.70;1254.40;;;;;;5050864;28;20103;-90
2024/04/01 06:20:55;;;;;;;38.97;10.35;;;563.70;1254.40;;;;;;5050426;28;20112;-91
2024/04/01 06:23:21;;;;;;;38.22;10.93;;;563.80;1254.40;;;;;;5050962;28;20033;-92
2024/04/01 06:25:47;;;;;;;33.70;10.38;;;563.80;1254.40;;;;;;5050389;28;20028;-85
2024/04/01 06:28:14;;;;;;;38.38;11.40;;;563.90;1254.40;;;;;;5049655;28;20037;-90
2024/04/01 06:30:40;;;;;;;37.92;10.23;;;563.90;1254.40;;;;;;5051091;28;20112;-82
2024/04/01 06:33:06;;;;;;;41.17;12.50;;;564.10;1254.40;;;;;;5050198;28;20107;-91
2024/04/01 06:35:31;;;;;;;40.97;11.02;;;564.10;1254.40;;;;;;5051293;28;20036;-89
2024/04/01 06:37:58;;;;;;;40.00;13.98;;;564.10;1228.80;;;;;;5051027;28;20497;-89
2024/04/01 06:40:25;;;;;;;35.38;14.10;;;564.10;1228.80;;;;;;5050666;28;20037;-91
2024/04/01 06:42:51;;;;;;;41.15;10.88;;;588.80;1228.80;;;;;;5049658;28;20060;-87
2024/04/01 06:45:16;;;;;;;36.85;9.70;;;588.80;1228.80;;;;;;5049671;28;20029;-89
2024/04/01 06:47:45;;;;;;;40.30;11.38;;;589.00;1228.80;;;;;;5050662;28;20028;-90
2024/04/01 06:50:11;;;;;;;34.22;10.32;;;589.10;1228.80;;;;;;5049483;28;20025;-89
2024/04/01 06:52:37;;;;;;;41.15;11.52;;;589.10;1203.20;;;;;;5049587;28;20082;-87
2024/04/01 06:55:04;;;;;;;34.03;11.13;;;589.20;1203.20;;;;;;5048487;28;20498;-87
2024/04/01 06:57:30;;;;;;;28.80;8.88;;;589.30;1203.20;;;;;;5049395;28;20041;-84
2024/04/01 06:59:59;;;;;;;29.77;8.68;;;589.30;1203.20;;;;;;5049065;28;20051;-85
2024/04/01 07:02:25;;;;;;;32.65;9.25;;;589.40;1203.20;;;;;;5050401;28;20092;-88
2024/04/01 07:04:51;;;;;;;26.25;10.60;;;589.40;1203.20;;;;;;5048780;28;20029;-88
2024/04/01 07:07:19;;;;;;;40.45;10.73;;;589.40;1203.20;;;;;;5049182;28;20364;-87
2024/04/01 07:09:45;;;;;;;28.52;8.82;;;589.50;1203.20;;;;;;5049177;28;20162;-85
2024/04/01 07:12:11;;;;;;;35.78;10.75;;;589.70;1177.60;;;;;;5048996;28;20043;-88
2024/04/01 07:14:37;;;;;;;52.40;11.23;;;614.50;1203.20;;;;;;5036590;28;20041;-91
2024/04/01 07:17:04;;;;;;;34.15;8.68;;;614.70;1177.60;;;;;;5046870;28;20550;-88
2024/04/01 07:19:29;;;;;;;48.75;13.00;;;615.20;1152.00;;;;;;5050497;28;20033;-87
2024/04/01 07:21:55;;;;;;;29.33;10.23;;;640.20;1126.40;;;;;;5051638;28;20086;-87
2024/04/01 07:24:21;;;;;;;31.13;10.80;;;640.40;1126.40;;;;;;5051739;28;20375;-91
2024/04/01 07:26:47;;;;;;;33.33;10.65;;;640.70;1126.40;;;;;;5050034;28;20536;-87
2024/04/01 07:29:13;;;;;;;38.38;10.27;;;640.90;1100.80;;;;;;5048173;28;20120;-84
2024/04/01 07:31:39;;;;;;;37.17;10.32;;;640.90;1075.20;;;;;;5047325;28;20038;-87
2024/04/01 07:34:04;;;;;;;47.13;12.30;;;665.70;1100.80;;;;;;5050036;28;20025;-89
2024/04/01 07:36:30;;;;;;;23.50;9.70;;;665.80;1100.80;;;;;;5049893;28;20033;-81
2024/04/01 07:39:00;;;;;;;41.28;11.63;;;665.70;1100.80;;;;;;5049363;28;20029;-81
2024/04/01 07:41:25;;;;;;;39.22;11.63;;;665.70;1100.80;;;;;;5037320;28;20036;-85
2024/04/01 07:43:52;;;;;;;35.15;10.00;;;640.90;1100.80;;;;;;5047960;28;20785;-85
2024/04/01 07:46:17;;;;;;;33.88;10.73;;;640.90;1100.80;;;;;;5048636;28;20036;-92
2024/04/01 07:48:43;;;;;;;32.55;11.00;;;640.90;1100.80;;;;;;5048219;28;20379;-88
2024/04/01 07:51:09;;;;;;;42.17;12.07;;;665.70;1100.80;;;;;;5048849;28;20530;-86
2024/04/01 07:53:36;;;;;;;39.65;10.10;;;666.00;1100.80;;;;;;5047749;28;20021;-84
2024/04/01 07:56:01;;;;;;;37.05;12.45;;;691.30;1075.20;;;;;;5037861;28;20037;-90
2024/04/01 07:58:28;;;;;;;38.10;11.57;;;691.60;1075.20;;;;;;5050796;28;20117;-84
2024/04/01 08:00:54;;;;;;;36.50;11.23;;;691.80;1049.60;;;;;;5029828;28;20083;-88
2024/04/01 08:03:20;;;;;;;39.95;13.52;;;716.80;1049.60;;;;;;5063770;28;20029;-84
2024/04/01 08:05:46;;;;;;;39.08;11.85;;;717.20;1049.60;;;;;;5046895;28;20195;-87
2024/04/01 08:08:12;;;;;;;42.38;12.48;;;717.50;1049.60;;;;;;5065349;28;20029;-90
2024/04/01 08:10:38;;;;;;;33.38;12.10;;;742.70;1049.60;;;;;;5047722;28;20039;-91
2024/04/01 08:13:05;;;;;;;44.20;13.18;;;742.80;1024.00;;;;;;5059354;28;20021;-88
2024/04/01 08:15:30;;;;;;;38.92;12.18;;;742.70;1049.60;;;;;;5040035;28;20010;-83
2024/04/01 08:17:56;;;;;;;39.80;12.02;;;743.10;1049.60;;;;;;5029869;28;20033;-82
2024/04/01 08:20:22;;;;;;;37.80;11.93;;;743.10;1024.00;;;;;;5055532;28;20126;-90
2024/04/01 08:22:48;;;;;;;40.47;13.60;;;768.10;1024.00;;;;;;5044003;28;20033;-82
2024/04/01 08:25:14;;;;;;;37.13;12.02;;;743.20;998.40;;;;;;5034271;28;20034;-87
2024/04/01 08:27:39;;;;;;;37.65;13.75;;;768.20;1024.00;;;;;;5039203;28;20055;-83
2024/04/01 08:30:06;;;;;;;40.97;12.10;;;768.20;1024.00;;;;;;5041065;28;20017;-82
2024/04/01 08:32:32;;;;;;;44.40;13.82;;;768.80;998.40;;;;;;5041964;28;20031;-85
2024/04/01 08:34:58;;;;;;;34.10;13.25;;;793.70;1024.00;;;;;;5038552;28;20406;-85
2024/04/01 08:37:23;;;;;;;48.83;15.00;;;793.70;998.40;;;;;;5048014;28;20407;-85
2024/04/01 08:39:49;;;;;;;40.65;15.75;;;793.90;972.80;;;;;;5041749;28;20553;-83
2024/04/01 08:42:20;;;;;;;31.02;13.18;;;793.70;998.40;;;;;;5034511;28;20040;-85
2024/04/01 08:44:50;;;;;;;41.83;14.63;;;768.40;972.80;;;;;;5028229;28;20025;-87
2024/04/01 08:47:18;;;;;;;36.05;14.00;;;768.40;972.80;;;;;;5037023;28;20099;-84
2024/04/01 08:49:48;;;;;;;45.35;14.18;;;768.10;972.80;;;;;;5049112;28;20029;-88
2024/04/01 08:52:15;;;;;;;48.95;14.40;;;743.30;998.40;;;;;;5044745;28;20021;-89
2024/04/01 08:54:41;;;;;;;43.17;14.52;;;743.00;998.40;;;;;;5046829;28;20098;-91
2024/04/01 08:57:07;;;;;;;49.75;15.55;;;742.90;998.40;;;;;;5053316;28;20484;-89
2024/04/01 08:59:35;;;;;;;35.30;12.60;;;742.80;1024.00;;;;;;5051570;28;20470;-84
2024/04/01 09:02:02;;;;;;;46.15;14.05;;;742.90;1024.00;;;;;;5052916;28;20548;-88
2024/04/01 09:04:29;;;;;;;40.13;13.73;;;742.70;998.40;;;;;;5046790;28;20029;-85
2024/04/01 09:06:56;;;;;;;46.20;12.38;;;742.80;1024.00;;;;;;5041889;28;20017;-84
2024/04/01 09:09:22;;;;;;;60.63;14.13;;;742.80;1024.00;;;;;;5050413;28;20056;-88
2024/04/01 09:11:49;;;;;;;38.08;12.75;;;742.60;1024.00;;;;;;5052992;28;20036;-85
2024/04/01 09:14:15;;;;;;;44.80;14.65;;;742.60;1024.00;;;;;;5051318;28;20022;-91
2024/04/01 09:16:41;;;;;;;42.42;13.38;;;742.40;1024.00;;;;;;5052556;28;20501;-91
2024/04/01 09:19:09;;;;;;;42.70;14.27;;;742.60;1024.00;;;;;;5051630;28;20048;-90
2024/04/01 09:21:36;;;;;;;40.13;11.50;;;742.50;1049.60;;;;;;5052600;28;20067;-90
2024/04/01 09:24:02;;;;;;;36.50;12.15;;;717.70;998.40;;;;;;5052521;28;20486;-90
2024/04/01 09:26:30;;;;;;;43.80;13.73;;;742.40;1024.00;;;;;;5052983;28;20048;-91
2024/04/01 09:28:57;;;;;;;39.17;12.85;;;742.40;1024.00;;;;;;5052287;28;20013;-84
2024/04/01 09:31:22;;;;;;;37.08;12.25;;;742.60;1024.00;;;;;;5052061;28;20036;-86
2024/04/01 09:33:49;;;;;;;37.60;11.48;;;717.70;1024.00;;;;;;5050763;28;20421;-87
2024/04/01 09:36:16;;;;;;;40.10;13.68;;;717.50;1024.00;;;;;;5052322;28;20376;-85
2024/04/01 09:38:42;;;;;;;44.33;11.27;;;717.50;1049.60;;;;;;5051548;28;20544;-86
2024/04/01 09:41:08;;;;;;;51.60;12.70;;;717.40;1024.00;;;;;;5052034;28;20049;-86
2024/04/01 09:43:34;;;;;;;43.88;12.35;;;717.40;1024.00;;;;;;5050409;28;20021;-84
2024/04/01 09:46:00;;;;;;;34.75;11.30;;;717.40;1024.00;;;;;;5053880;28;20526;-90
2024/04/01 09:48:28;;;;;;;45.88;14.15;;;717.40;998.40;;;;;;5051640;28;20064;-83
2024/04/01 09:50:55;;;;;;;42.72;13.23;;;717.50;972.80;;;;;;5046190;28;20025;-84
2024/04/01 09:53:23;;;;;;;39.13;14.15;;;717.70;998.40;;;;;;5061749;28;20040;-90
2024/04/01 09:56:22;;;;;;;51.33;14.68;;;717.70;972.80;;;;;;5051413;28;20029;-89
2024/04/01 09:59:06;;;;;;;36.67;12.98;;;742.60;1024.00;;;;;;5067604;28;20025;-84
2024/04/01 10:01:47;;;;;;;52.67;14.88;;;742.40;1049.60;;;;;;5065983;28;20036;-82
2024/04/01 10:04:38;;;;;;;50.42;15.25;;;742.40;998.40;;;;;;5051109;28;20379;-83
2024/04/01 10:07:30;;;;;;;54.42;13.55;;;717.70;972.80;;;;;;5041300;28;20032;-81
2024/04/01 10:10:08;;;;;;;37.35;13.65;;;717.70;947.20;;;;;;5049832;28;20056;-82
2024/04/01 10:13:01;;;;;;;40.92;13.10;;;717.50;947.20;;;;;;5050700;28;20712;-81
2024/04/01 10:15:48;;;;;;;44.72;12.52;;;717.50;947.20;;;;;;5051226;28;20151;-91
2024/04/01 10:18:51;;;;;;;28.65;11.25;;;742.40;998.40;;;;;;5066785;28;20040;-86
2024/04/01 10:21:36;;;;;;;33.85;11.38;;;717.70;947.20;;;;;;5067620;28;20464;-87
2024/04/01 10:24:26;;;;;;;48.00;12.93;;;742.40;998.40;;;;;;5051145;28;20025;-86
2024/04/01 10:26:51;;;;;;;41.85;12.35;;;717.70;947.20;;;;;;5050899;28;20032;-86
2024/04/01 10:29:38;;;;;;;33.17;11.93;;;742.40;972.80;;;;;;5066817;28;20408;-88
2024/04/01 10:32:54;;;;;;;42.90;11.65;;;742.40;998.40;;;;;;5066125;28;20032;-88
2024/04/01 10:35:37;;;;;;;45.40;13.90;;;742.40;998.40;;;;;;5066638;28;20017;-92
2024/04/01 10:38:06;;;;;;;45.85;14.68;;;742.50;972.80;;;;;;5066835;28;20082;-87
2024/04/01 10:40:55;;;;;;;38.40;11.70;;;742.50;998.40;;;;;;5050626;28;20048;-92
2024/04/01 10:43:35;;;;;;;39.22;10.82;;;742.60;998.40;;;;;;5050946;28;20032;-83
2024/04/01 10:46:10;;;;;;;28.67;11.23;;;742.80;972.80;;;;;;5051059;28;20025;-90
2024/04/01 10:49:03;;;;;;;36.22;12.15;;;742.80;972.80;;;;;;5051009;28;20021;-91
2024/04/01 10:51:57;;;;;;;42.22;12.95;;;742.90;972.80;;;;;;5066551;28;20025;-90
2024/04/01 10:54:37;;;;;;;44.03;13.23;;;742.90;972.80;;;;;;5049313;28;20064;-90
2024/04/01 10:57:52;;;;;;;32.78;11.55;;;743.10;972.80;;;;;;5049164;28;20188;-91
2024/04/01 11:00:23;;;;;;;37.72;11.50;;;743.10;921.60;;;;;;4989554;28;20045;-89
2024/04/01 11:03:17;;;;;;;42.83;12.23;;;743.00;972.80;;;;;;4989539;28;20039;-90
2024/04/01 11:06:03;;;;;;;43.20;12.73;;;743.10;1024.00;;;;;;4972143;28;20077;-85
2024/04/01 11:08:53;;;;;;;39.15;10.88;;;742.90;972.80;;;;;;4977800;28;20057;-82
2024/04/01 11:11:40;;;;;;;32.20;10.98;;;743.10;947.20;;;;;;4985683;28;20182;-82
2024/04/01 11:14:09;;;;;;;39.90;11.70;;;742.80;947.20;;;;;;4969499;28;20034;-86
2024/04/01 11:16:38;;;;;;;37.70;11.73;;;742.70;972.80;;;;;;4971771;28;20074;-85
2024/04/01 11:19:19;;;;;;;39.15;12.82;;;742.80;947.20;;;;;;4971761;28;20088;-85
2024/04/01 11:21:50;;;;;;;35.42;12.27;;;742.90;947.20;;;;;;4972200;28;20061;-86
2024/04/01 11:24:30;;;;;;;58.20;13.20;;;742.80;972.80;;;;;;4959375;28;20157;-89
2024/04/01 11:27:21;;;;;;;38.53;12.50;;;742.80;947.20;;;;;;4969669;28;20033;-87
2024/04/01 11:29:59;;;;;;;38.67;10.65;;;742.90;972.80;;;;;;4971609;28;20099;-87
2024/04/01 11:32:30;;;;;;;42.50;12.70;;;742.90;972.80;;;;;;4988237;28;20022;-89
2024/04/01 11:35:17;;;;;;;39.70;11.57;;;743.20;947.20;;;;;;4988414;28;20042;-84
2024/04/01 11:37:51;;;;;;;46.03;13.13;;;742.90;998.40;;;;;;5021720;28;20083;-92
2024/04/01 11:40:22;;;;;;;33.72;13.90;;;743.10;972.80;;;;;;5036656;28;20056;-88
2024/04/01 11:42:59;;;;;;;37.25;12.07;;;743.00;921.60;;;;;;5049939;28;20033;-86
2024/04/01 11:45:29;;;;;;;40.42;11.45;;;743.00;921.60;;;;;;5049413;28;20025;-86
2024/04/01 11:47:56;;;;;;;40.33;11.73;;;743.00;998.40;;;;;;5049339;28;20027;-89
2024/04/01 11:50:22;;;;;;;44.55;11.13;;;742.90;998.40;;;;;;5040536;28;20045;-89
2024/04/01 11:53:05;;;;;;;35.75;11.85;;;742.80;947.20;;;;;;5046447;28;20052;-91
2024/04/01 11:55:32;;;;;;;38.60;11.50;;;742.70;947.20;;;;;;5048837;28;20194;-84
2024/04/01 11:58:11;;;;;;;38.83;11.88;;;742.60;947.20;;;;;;5048857;28;20029;-90
2024/04/01 12:00:48;;;;;;;32.42;11.13;;;742.60;947.20;;;;;;5049004;28;20021;-82
2024/04/01 12:03:14;;;;;;;44.65;12.52;;;742.80;1024.00;;;;;;5047493;28;20471;-91
2024/04/01 12:05:54;;;;;;;44.90;12.15;;;742.40;947.20;;;;;;5047451;28;20047;-82
2024/04/01 12:08:23;;;;;;;46.78;12.25;;;742.40;998.40;;;;;;5037372;28;20052;-89
2024/04/01 12:10:50;;;;;;;38.00;12.57;;;742.50;921.60;;;;;;5048486;28;20128;-86